sensor_id;sensor_type;location;lat;lon;timestamp;pressure;altitude;pressure_sealevel;temperature;humidity
75656;BME280;64252;51.094;13.714;2023-02-01T00:01:17;100285.78;;;3.41;84.22
75656;BME280;64252;51.094;13.714;2023-02-01T00:03:43;100282.28;;;3.44;84.64
75656;BME280;64252;51.094;13.714;2023-02-01T00:06:09;100282.66;;;3.42;84.34
75656;BME280;64252;51.094;13.714;2023-02-01T00:08:34;100290.75;;;3.35;84.17
75656;BME280;64252;51.094;13.714;2023-02-01T00:11:04;100288.44;;;3.37;84.38
75656;BME280;64252;51.094;13.714;2023-02-01T00:13:34;100289.88;;;3.43;84.34
75656;BME280;64252;51.094;13.714;2023-02-01T00:18:33;100287.13;;;3.68;83.55
75656;BME280;64252;51.094;13.714;2023-02-01T00:20:59;100301.69;;;3.73;83.19
75656;BME280;64252;51.094;13.714;2023-02-01T00:23:26;100292.84;;;3.71;82.71
75656;BME280;64252;51.094;13.714;2023-02-01T00:25:52;100298.28;;;3.68;83.05
75656;BME280;64252;51.094;13.714;2023-02-01T00:28:17;100292.25;;;3.78;82.75
75656;BME280;64252;51.094;13.714;2023-02-01T00:30:45;100300.41;;;3.71;82.70
75656;BME280;64252;51.094;13.714;2023-02-01T00:33:10;100291.31;;;3.74;83.07
75656;BME280;64252;51.094;13.714;2023-02-01T00:35:36;100295.03;;;3.66;83.40
75656;BME280;64252;51.094;13.714;2023-02-01T00:38:02;100297.88;;;3.90;82.33
75656;BME280;64252;51.094;13.714;2023-02-01T00:40:28;100298.13;;;3.97;82.19
75656;BME280;64252;51.094;13.714;2023-02-01T00:42:53;100293.22;;;4.06;81.54
75656;BME280;64252;51.094;13.714;2023-02-01T00:45:19;100293.50;;;4.13;81.80
75656;BME280;64252;51.094;13.714;2023-02-01T00:47:45;100287.91;;;4.13;81.40
75656;BME280;64252;51.094;13.714;2023-02-01T00:50:11;100301.50;;;4.15;80.80
75656;BME280;64252;51.094;13.714;2023-02-01T00:52:36;100299.31;;;4.08;81.79
75656;BME280;64252;51.094;13.714;2023-02-01T00:55:02;100298.94;;;4.10;81.41
75656;BME280;64252;51.094;13.714;2023-02-01T00:57:28;100305.00;;;4.00;81.71
75656;BME280;64252;51.094;13.714;2023-02-01T00:59:53;100299.75;;;3.86;82.49
75656;BME280;64252;51.094;13.714;2023-02-01T01:02:19;100289.50;;;3.90;82.47
75656;BME280;64252;51.094;13.714;2023-02-01T01:04:46;100292.25;;;3.78;82.48
75656;BME280;64252;51.094;13.714;2023-02-01T01:07:11;100292.84;;;3.71;82.36
75656;BME280;64252;51.094;13.714;2023-02-01T01:09:37;100300.63;;;3.66;82.40
75656;BME280;64252;51.094;13.714;2023-02-01T01:12:02;100295.72;;;3.63;82.32
75656;BME280;64252;51.094;13.714;2023-02-01T01:14:30;100293.38;;;3.52;82.71
75656;BME280;64252;51.094;13.714;2023-02-01T01:16:55;100299.81;;;3.65;81.47
75656;BME280;64252;51.094;13.714;2023-02-01T01:19:21;100293.19;;;3.70;81.51
75656;BME280;64252;51.094;13.714;2023-02-01T01:21:46;100292.25;;;3.66;81.13
75656;BME280;64252;51.094;13.714;2023-02-01T01:24:12;100287.13;;;3.68;81.46
75656;BME280;64252;51.094;13.714;2023-02-01T01:26:37;100291.81;;;3.76;80.85
75656;BME280;64252;51.094;13.714;2023-02-01T01:29:03;100291.31;;;3.74;81.37
75656;BME280;64252;51.094;13.714;2023-02-01T01:31:29;100292.03;;;3.83;80.91
75656;BME280;64252;51.094;13.714;2023-02-01T01:33:57;100293.69;;;3.96;80.12
75656;BME280;64252;51.094;13.714;2023-02-01T01:36:25;100281.84;;;3.99;79.92
75656;BME280;64252;51.094;13.714;2023-02-01T01:38:51;100276.25;;;4.11;79.04
75656;BME280;64252;51.094;13.714;2023-02-01T01:41:30;100286.25;;;4.12;78.51
75656;BME280;64252;51.094;13.714;2023-02-01T01:44:02;100287.91;;;4.13;78.10
75656;BME280;64252;51.094;13.714;2023-02-01T01:46:32;100293.00;;;4.11;78.53
75656;BME280;64252;51.094;13.714;2023-02-01T01:49:17;100288.56;;;4.10;78.71
75656;BME280;64252;51.094;13.714;2023-02-01T01:51:49;100294.16;;;4.10;77.88
75656;BME280;64252;51.094;13.714;2023-02-01T01:54:51;100284.75;;;4.15;77.79
75656;BME280;64252;51.094;13.714;2023-02-01T01:57:23;100279.38;;;4.10;78.46
75656;BME280;64252;51.094;13.714;2023-02-01T01:59:54;100286.25;;;4.12;78.57
75656;BME280;64252;51.094;13.714;2023-02-01T02:02:21;100280.78;;;4.16;77.80
75656;BME280;64252;51.094;13.714;2023-02-01T02:04:47;100279.41;;;4.22;77.50
75656;BME280;64252;51.094;13.714;2023-02-01T02:07:17;100282.63;;;4.24;77.35
75656;BME280;64252;51.094;13.714;2023-02-01T02:09:45;100290.47;;;4.18;77.41
75656;BME280;64252;51.094;13.714;2023-02-01T02:12:11;100286.38;;;4.16;78.10
75656;BME280;64252;51.094;13.714;2023-02-01T02:14:37;100291.41;;;4.22;77.20
75656;BME280;64252;51.094;13.714;2023-02-01T02:36:29;100260.16;;;3.96;77.88
75656;BME280;64252;51.094;13.714;2023-02-01T02:38:56;100257.38;;;3.84;78.11
75656;BME280;64252;51.094;13.714;2023-02-01T02:41:32;100253.75;;;3.83;78.19
75656;BME280;64252;51.094;13.714;2023-02-01T02:44:25;100245.94;;;3.77;79.10
75656;BME280;64252;51.094;13.714;2023-02-01T02:47:23;100242.47;;;3.80;77.89
75656;BME280;64252;51.094;13.714;2023-02-01T02:53:10;100240.13;;;3.70;78.16
75656;BME280;64252;51.094;13.714;2023-02-01T02:55:56;100240.34;;;3.77;77.67
75656;BME280;64252;51.094;13.714;2023-02-01T02:58:42;100242.81;;;3.78;77.48
75656;BME280;64252;51.094;13.714;2023-02-01T03:01:28;100248.50;;;3.82;77.57
75656;BME280;64252;51.094;13.714;2023-02-01T03:04:13;100251.78;;;3.84;76.96
75656;BME280;64252;51.094;13.714;2023-02-01T03:06:45;100240.63;;;3.84;77.39
75656;BME280;64252;51.094;13.714;2023-02-01T03:09:18;100251.34;;;3.94;76.83
75656;BME280;64252;51.094;13.714;2023-02-01T03:11:48;100246.09;;;3.80;77.62
75656;BME280;64252;51.094;13.714;2023-02-01T03:14:37;100248.78;;;3.89;76.13
75656;BME280;64252;51.094;13.714;2023-02-01T03:17:13;100261.81;;;3.97;76.71
75656;BME280;64252;51.094;13.714;2023-02-01T03:19:43;100264.38;;;4.02;76.11
75656;BME280;64252;51.094;13.714;2023-02-01T03:22:41;100259.50;;;3.99;76.67
75656;BME280;64252;51.094;13.714;2023-02-01T03:25:22;100256.56;;;4.08;75.79
75656;BME280;64252;51.094;13.714;2023-02-01T03:27:56;100251.09;;;4.11;75.87
75656;BME280;64252;51.094;13.714;2023-02-01T03:30:26;100252.94;;;4.19;75.60
75656;BME280;64252;51.094;13.714;2023-02-01T03:32:56;100249.00;;;4.20;74.99
75656;BME280;64252;51.094;13.714;2023-02-01T03:38:30;100244.34;;;4.24;74.90
75656;BME280;64252;51.094;13.714;2023-02-01T03:41:08;100243.50;;;4.24;75.20
75656;BME280;64252;51.094;13.714;2023-02-01T03:46:32;100249.91;;;4.24;74.70
75656;BME280;64252;51.094;13.714;2023-02-01T03:49:02;100237.13;;;4.23;74.93
75656;BME280;64252;51.094;13.714;2023-02-01T03:51:29;100247.13;;;4.24;75.46
75656;BME280;64252;51.094;13.714;2023-02-01T03:53:56;100231.75;;;4.30;74.77
75656;BME280;64252;51.094;13.714;2023-02-01T03:56:23;100235.94;;;4.36;74.25
75656;BME280;64252;51.094;13.714;2023-02-01T03:58:51;100227.19;;;4.38;73.84
75656;BME280;64252;51.094;13.714;2023-02-01T04:01:30;100223.13;;;4.35;74.63
75656;BME280;64252;51.094;13.714;2023-02-01T04:03:56;100219.53;;;4.35;74.84
75656;BME280;64252;51.094;13.714;2023-02-01T04:06:23;100233.41;;;4.31;74.45
75656;BME280;64252;51.094;13.714;2023-02-01T04:08:49;100210.13;;;4.27;75.08
75656;BME280;64252;51.094;13.714;2023-02-01T04:11:16;100214.78;;;4.23;75.06
75656;BME280;64252;51.094;13.714;2023-02-01T04:13:41;100213.50;;;4.33;74.05
75656;BME280;64252;51.094;13.714;2023-02-01T04:16:07;100215.00;;;4.30;75.09
75656;BME280;64252;51.094;13.714;2023-02-01T04:18:33;100211.75;;;4.28;74.42
75656;BME280;64252;51.094;13.714;2023-02-01T04:20:58;100208.69;;;4.33;74.18
75656;BME280;64252;51.094;13.714;2023-02-01T04:23:25;100209.50;;;4.34;73.85
75656;BME280;64252;51.094;13.714;2023-02-01T04:25:50;100207.09;;;4.32;75.13
75656;BME280;64252;51.094;13.714;2023-02-01T04:28:16;100200.91;;;4.27;74.33
75656;BME280;64252;51.094;13.714;2023-02-01T04:30:42;100209.88;;;4.20;75.32
75656;BME280;64252;51.094;13.714;2023-02-01T04:33:07;100194.84;;;4.25;73.95
75656;BME280;64252;51.094;13.714;2023-02-01T04:35:33;100195.09;;;4.20;74.60
75656;BME280;64252;51.094;13.714;2023-02-01T04:37:59;100192.19;;;4.16;74.81
75656;BME280;64252;51.094;13.714;2023-02-01T04:40:25;100188.94;;;4.14;74.90
75656;BME280;64252;51.094;13.714;2023-02-01T04:42:51;100186.59;;;4.16;74.49
75656;BME280;64252;51.094;13.714;2023-02-01T04:45:17;100188.34;;;4.21;74.19
75656;BME280;64252;51.094;13.714;2023-02-01T04:47:42;100188.19;;;4.29;74.16
75656;BME280;64252;51.094;13.714;2023-02-01T04:50:08;100188.44;;;4.24;74.26
75656;BME280;64252;51.094;13.714;2023-02-01T04:52:36;100182.16;;;4.27;74.13
75656;BME280;64252;51.094;13.714;2023-02-01T04:55:03;100180.44;;;4.23;73.94
75656;BME280;64252;51.094;13.714;2023-02-01T04:57:28;100171.47;;;4.17;74.38
75656;BME280;64252;51.094;13.714;2023-02-01T04:59:54;100176.44;;;4.24;73.95
75656;BME280;64252;51.094;13.714;2023-02-01T05:02:20;100171.56;;;4.21;74.07
75656;BME280;64252;51.094;13.714;2023-02-01T05:04:45;100163.19;;;4.21;73.91
75656;BME280;64252;51.094;13.714;2023-02-01T05:07:11;100164.72;;;4.18;74.01
75656;BME280;64252;51.094;13.714;2023-02-01T05:09:36;100161.09;;;4.18;74.03
75656;BME280;64252;51.094;13.714;2023-02-01T05:12:02;100164.25;;;4.16;73.77
75656;BME280;64252;51.094;13.714;2023-02-01T05:14:46;100151.91;;;4.17;73.90
75656;BME280;64252;51.094;13.714;2023-02-01T05:17:13;100139.81;;;4.13;73.80
75656;BME280;64252;51.094;13.714;2023-02-01T05:19:38;100151.44;;;4.15;73.50
75656;BME280;64252;51.094;13.714;2023-02-01T05:22:04;100140.25;;;4.15;73.65
75656;BME280;64252;51.094;13.714;2023-02-01T05:24:29;100140.72;;;4.17;73.28
75656;BME280;64252;51.094;13.714;2023-02-01T05:26:55;100138.03;;;4.21;73.79
75656;BME280;64252;51.094;13.714;2023-02-01T05:29:20;100138.03;;;4.21;73.45
75656;BME280;64252;51.094;13.714;2023-02-01T05:31:46;100134.53;;;4.24;72.36
75656;BME280;64252;51.094;13.714;2023-02-01T05:34:13;100126.97;;;4.24;72.79
75656;BME280;64252;51.094;13.714;2023-02-01T05:36:39;100130.81;;;4.20;72.99
75656;BME280;64252;51.094;13.714;2023-02-01T05:39:05;100134.91;;;4.22;72.73
75656;BME280;64252;51.094;13.714;2023-02-01T05:41:30;100136.53;;;4.23;72.91
75656;BME280;64252;51.094;13.714;2023-02-01T05:43:56;100137.66;;;4.34;72.31
75656;BME280;64252;51.094;13.714;2023-02-01T05:46:22;100130.91;;;4.35;72.59
75656;BME280;64252;51.094;13.714;2023-02-01T05:48:48;100134.50;;;4.36;73.13
75656;BME280;64252;51.094;13.714;2023-02-01T05:51:14;100134.59;;;4.39;72.36
75656;BME280;64252;51.094;13.714;2023-02-01T05:53:39;100133.34;;;4.37;72.37
75656;BME280;64252;51.094;13.714;2023-02-01T05:56:05;100119.00;;;4.38;72.46
75656;BME280;64252;51.094;13.714;2023-02-01T05:58:31;100128.69;;;4.41;72.78
75656;BME280;64252;51.094;13.714;2023-02-01T06:00:59;100127.38;;;4.38;73.24
75656;BME280;64252;51.094;13.714;2023-02-01T06:03:26;100128.09;;;4.35;73.66
75656;BME280;64252;51.094;13.714;2023-02-01T06:05:51;100130.56;;;4.37;73.01
75656;BME280;64252;51.094;13.714;2023-02-01T06:08:17;100131.13;;;4.30;74.89
75656;BME280;64252;51.094;13.714;2023-02-01T06:10:43;100121.50;;;4.28;74.74
75656;BME280;64252;51.094;13.714;2023-02-01T06:13:08;100131.38;;;4.25;74.49
75656;BME280;64252;51.094;13.714;2023-02-01T06:15:34;100124.84;;;4.33;74.02
75656;BME280;64252;51.094;13.714;2023-02-01T06:18:00;100112.75;;;4.29;74.63
75656;BME280;64252;51.094;13.714;2023-02-01T06:20:26;100117.50;;;4.29;74.22
75656;BME280;64252;51.094;13.714;2023-02-01T06:22:51;100108.78;;;4.30;74.16
75656;BME280;64252;51.094;13.714;2023-02-01T06:25:17;100105.50;;;4.40;73.15
75656;BME280;64252;51.094;13.714;2023-02-01T06:27:44;100114.34;;;4.43;73.43
75656;BME280;64252;51.094;13.714;2023-02-01T06:30:11;100114.22;;;4.39;72.21
75656;BME280;64252;51.094;13.714;2023-02-01T06:32:39;100121.78;;;4.38;72.78
75656;BME280;64252;51.094;13.714;2023-02-01T06:35:07;100112.16;;;4.36;73.52
75656;BME280;64252;51.094;13.714;2023-02-01T06:37:36;100113.31;;;4.35;72.96
75656;BME280;64252;51.094;13.714;2023-02-01T06:40:03;100125.88;;;4.41;72.52
75656;BME280;64252;51.094;13.714;2023-02-01T06:42:29;100115.84;;;4.40;72.38
75656;BME280;64252;51.094;13.714;2023-02-01T06:44:54;100118.75;;;4.43;72.79
75656;BME280;64252;51.094;13.714;2023-02-01T06:47:20;100115.94;;;4.43;72.84
75656;BME280;64252;51.094;13.714;2023-02-01T06:49:45;100115.50;;;4.41;73.48
75656;BME280;64252;51.094;13.714;2023-02-01T06:52:11;100110.50;;;4.47;72.76
75656;BME280;64252;51.094;13.714;2023-02-01T06:54:36;100100.81;;;4.45;72.90
75656;BME280;64252;51.094;13.714;2023-02-01T06:57:03;100111.56;;;4.43;73.70
75656;BME280;64252;51.094;13.714;2023-02-01T06:59:28;100109.78;;;4.38;73.64
75656;BME280;64252;51.094;13.714;2023-02-01T07:01:54;100107.13;;;4.41;73.38
75656;BME280;64252;51.094;13.714;2023-02-01T07:04:19;100101.06;;;4.39;73.77
75656;BME280;64252;51.094;13.714;2023-02-01T07:06:45;100105.97;;;4.43;74.00
75656;BME280;64252;51.094;13.714;2023-02-01T07:09:11;100103.94;;;4.43;74.07
75656;BME280;64252;51.094;13.714;2023-02-01T07:11:37;100099.56;;;4.42;74.65
75656;BME280;64252;51.094;13.714;2023-02-01T07:14:06;100086.41;;;4.43;74.85
75656;BME280;64252;51.094;13.714;2023-02-01T07:16:31;100099.56;;;4.42;75.27
75656;BME280;64252;51.094;13.714;2023-02-01T07:18:57;100081.84;;;4.38;76.15
75656;BME280;64252;51.094;13.714;2023-02-01T07:21:23;100092.25;;;4.37;76.69
75656;BME280;64252;51.094;13.714;2023-02-01T07:23:49;100099.97;;;4.28;77.32
75656;BME280;64252;51.094;13.714;2023-02-01T07:26:15;100101.25;;;4.19;78.79
75656;BME280;64252;51.094;13.714;2023-02-01T07:28:41;100091.38;;;4.09;79.91
75656;BME280;64252;51.094;13.714;2023-02-01T07:31:18;100098.28;;;4.00;80.46
75656;BME280;64252;51.094;13.714;2023-02-01T07:33:46;100097.69;;;3.94;81.31
75656;BME280;64252;51.094;13.714;2023-02-01T07:36:14;100094.81;;;3.90;81.32
75656;BME280;64252;51.094;13.714;2023-02-01T07:38:40;100096.78;;;3.90;80.77
75656;BME280;64252;51.094;13.714;2023-02-01T07:41:07;100091.53;;;3.88;81.15
75656;BME280;64252;51.094;13.714;2023-02-01T07:43:34;100088.41;;;3.90;80.83
75656;BME280;64252;51.094;13.714;2023-02-01T07:46:00;100086.28;;;3.87;81.80
75656;BME280;64252;51.094;13.714;2023-02-01T07:48:26;100081.91;;;3.86;80.59
75656;BME280;64252;51.094;13.714;2023-02-01T07:51:09;100078.84;;;3.91;80.72
75656;BME280;64252;51.094;13.714;2023-02-01T07:53:35;100083.25;;;3.92;80.39
75656;BME280;64252;51.094;13.714;2023-02-01T07:56:02;100076.84;;;3.91;80.50
75656;BME280;64252;51.094;13.714;2023-02-01T07:58:28;100080.47;;;3.92;80.61
75656;BME280;64252;51.094;13.714;2023-02-01T08:00:54;100074.75;;;4.01;79.34
75656;BME280;64252;51.094;13.714;2023-02-01T08:03:39;100073.69;;;4.05;79.68
75656;BME280;64252;51.094;13.714;2023-02-01T08:06:06;100068.22;;;4.09;79.48
75656;BME280;64252;51.094;13.714;2023-02-01T08:08:32;100080.41;;;4.16;78.93
75656;BME280;64252;51.094;13.714;2023-02-01T08:11:02;100067.59;;;4.15;79.96
75656;BME280;64252;51.094;13.714;2023-02-01T08:13:29;100054.25;;;4.09;80.94
75656;BME280;64252;51.094;13.714;2023-02-01T08:15:58;100065.78;;;4.07;81.03
75656;BME280;64252;51.094;13.714;2023-02-01T08:18:25;100059.38;;;4.07;81.47
75656;BME280;64252;51.094;13.714;2023-02-01T08:20:51;100070.88;;;4.05;80.99
75656;BME280;64252;51.094;13.714;2023-02-01T08:23:19;100066.50;;;4.04;80.40
75656;BME280;64252;51.094;13.714;2023-02-01T08:25:44;100056.38;;;4.00;80.67
75656;BME280;64252;51.094;13.714;2023-02-01T08:28:10;100051.72;;;3.91;81.99
75656;BME280;64252;51.094;13.714;2023-02-01T08:30:37;100048.81;;;3.88;81.64
75656;BME280;64252;51.094;13.714;2023-02-01T08:33:05;100039.78;;;3.79;82.32
75656;BME280;64252;51.094;13.714;2023-02-01T08:35:34;100038.97;;;3.78;82.24
75656;BME280;64252;51.094;13.714;2023-02-01T08:38:00;100037.91;;;3.83;81.33
75656;BME280;64252;51.094;13.714;2023-02-01T08:40:26;100043.72;;;3.90;80.37
75656;BME280;64252;51.094;13.714;2023-02-01T08:42:52;100034.72;;;3.96;79.64
75656;BME280;64252;51.094;13.714;2023-02-01T08:45:25;100033.88;;;4.08;78.72
75656;BME280;64252;51.094;13.714;2023-02-01T08:47:52;100038.25;;;4.21;77.61
75656;BME280;64252;51.094;13.714;2023-02-01T08:50:19;100029.56;;;4.38;77.00
75656;BME280;64252;51.094;13.714;2023-02-01T08:52:45;100009.22;;;4.54;76.07
75656;BME280;64252;51.094;13.714;2023-02-01T08:55:11;100009.41;;;4.76;74.40
75656;BME280;64252;51.094;13.714;2023-02-01T08:57:37;100020.09;;;5.02;74.43
75656;BME280;64252;51.094;13.714;2023-02-01T09:00:06;100026.22;;;5.23;72.25
75656;BME280;64252;51.094;13.714;2023-02-01T09:02:32;100021.63;;;5.31;72.46
75656;BME280;64252;51.094;13.714;2023-02-01T09:04:58;100011.22;;;5.32;73.21
75656;BME280;64252;51.094;13.714;2023-02-01T09:07:24;100011.13;;;5.28;72.46
75656;BME280;64252;51.094;13.714;2023-02-01T09:09:50;100016.84;;;5.32;72.24
75656;BME280;64252;51.094;13.714;2023-02-01T09:12:15;100016.56;;;5.37;71.93
75656;BME280;64252;51.094;13.714;2023-02-01T09:14:41;100016.56;;;5.37;71.54
75656;BME280;64252;51.094;13.714;2023-02-01T09:17:06;100019.34;;;5.37;72.08
75656;BME280;64252;51.094;13.714;2023-02-01T09:19:32;100014.38;;;5.30;71.90
75656;BME280;64252;51.094;13.714;2023-02-01T09:21:59;100023.13;;;5.28;73.06
75656;BME280;64252;51.094;13.714;2023-02-01T09:24:25;100019.28;;;5.17;72.06
75656;BME280;64252;51.094;13.714;2023-02-01T09:26:51;100018.81;;;5.15;73.10
75656;BME280;64252;51.094;13.714;2023-02-01T09:29:17;100027.22;;;5.15;73.14
75656;BME280;64252;51.094;13.714;2023-02-01T09:31:43;100029.84;;;5.08;75.11
75656;BME280;64252;51.094;13.714;2023-02-01T09:34:08;100008.16;;;5.05;75.65
75656;BME280;64252;51.094;13.714;2023-02-01T09:36:34;100025.78;;;5.21;74.70
75656;BME280;64252;51.094;13.714;2023-02-01T09:39:00;100017.25;;;5.34;74.57
75656;BME280;64252;51.094;13.714;2023-02-01T09:46:47;100037.13;;;4.66;78.41
75656;BME280;64252;51.094;13.714;2023-02-01T09:49:17;100043.41;;;4.47;80.46
75656;BME280;64252;51.094;13.714;2023-02-01T09:51:46;100051.16;;;4.26;82.89
75656;BME280;64252;51.094;13.714;2023-02-01T09:54:26;100058.34;;;3.99;83.59
75656;BME280;64252;51.094;13.714;2023-02-01T09:57:06;100064.44;;;3.89;84.63
75656;BME280;64252;51.094;13.714;2023-02-01T09:59:42;100069.47;;;3.71;85.71
75656;BME280;64252;51.094;13.714;2023-02-01T10:02:17;100083.78;;;3.58;86.66
75656;BME280;64252;51.094;13.714;2023-02-01T10:04:43;100086.00;;;3.52;87.13
75656;BME280;64252;51.094;13.714;2023-02-01T10:10:15;100090.63;;;3.36;88.62
75656;BME280;64252;51.094;13.714;2023-02-01T10:13:02;100093.09;;;3.37;87.26
75656;BME280;64252;51.094;13.714;2023-02-01T10:29:39;100094.84;;;3.42;88.27
75656;BME280;64252;51.094;13.714;2023-02-01T10:32:14;100100.06;;;3.43;88.93
75656;BME280;64252;51.094;13.714;2023-02-01T10:34:42;100091.00;;;3.46;88.95
75656;BME280;64252;51.094;13.714;2023-02-01T10:37:25;100095.41;;;3.60;88.54
75656;BME280;64252;51.094;13.714;2023-02-01T10:42:43;100089.00;;;3.71;88.21
75656;BME280;64252;51.094;13.714;2023-02-01T10:45:20;100085.63;;;3.78;87.13
75656;BME280;64252;51.094;13.714;2023-02-01T10:47:50;100097.84;;;3.85;86.57
75656;BME280;64252;51.094;13.714;2023-02-01T10:53:18;100086.06;;;4.04;85.39
75656;BME280;64252;51.094;13.714;2023-02-01T10:58:20;100095.28;;;4.32;83.42
75656;BME280;64252;51.094;13.714;2023-02-01T11:03:37;100088.72;;;4.68;82.01
75656;BME280;64252;51.094;13.714;2023-02-01T11:06:26;100095.84;;;4.66;81.43
75656;BME280;64252;51.094;13.714;2023-02-01T11:08:55;100091.84;;;4.67;82.08
75656;BME280;64252;51.094;13.714;2023-02-01T11:11:21;100102.09;;;4.75;81.12
75656;BME280;64252;51.094;13.714;2023-02-01T11:13:55;100103.69;;;4.76;81.36
75656;BME280;64252;51.094;13.714;2023-02-01T11:16:29;100105.31;;;4.77;80.95
75656;BME280;64252;51.094;13.714;2023-02-01T11:18:55;100095.16;;;4.84;80.94
75656;BME280;64252;51.094;13.714;2023-02-01T11:21:23;100094.34;;;4.84;80.55
75656;BME280;64252;51.094;13.714;2023-02-01T11:23:50;100100.03;;;4.88;81.48
75656;BME280;64252;51.094;13.714;2023-02-01T11:26:24;100102.47;;;4.89;80.62
75656;BME280;64252;51.094;13.714;2023-02-01T11:29:02;100088.75;;;5.00;79.87
75656;BME280;64252;51.094;13.714;2023-02-01T11:31:28;100088.63;;;5.08;80.36
75656;BME280;64252;51.094;13.714;2023-02-01T11:34:19;100087.63;;;5.16;78.24
75656;BME280;64252;51.094;13.714;2023-02-01T11:36:48;100079.50;;;5.11;79.18
75656;BME280;64252;51.094;13.714;2023-02-01T11:44:22;100064.75;;;5.14;79.04
75656;BME280;64252;51.094;13.714;2023-02-01T11:46:51;100072.53;;;5.21;78.62
75656;BME280;64252;51.094;13.714;2023-02-01T11:49:25;100062.44;;;5.16;78.15
75656;BME280;64252;51.094;13.714;2023-02-01T11:51:59;100066.41;;;5.15;79.52
75656;BME280;64252;51.094;13.714;2023-02-01T11:54:58;100061.06;;;5.10;80.10
75656;BME280;64252;51.094;13.714;2023-02-01T11:57:46;100052.31;;;4.96;80.26
75656;BME280;64252;51.094;13.714;2023-02-01T12:08:55;100048.25;;;5.09;79.41
75656;BME280;64252;51.094;13.714;2023-02-01T12:14:03;100048.31;;;5.28;79.62
75656;BME280;64252;51.094;13.714;2023-02-01T12:27:32;100039.22;;;5.32;79.15
75656;BME280;64252;51.094;13.714;2023-02-01T12:35:38;100041.09;;;5.27;78.87
75656;BME280;64252;51.094;13.714;2023-02-01T12:43:48;100029.47;;;5.41;76.06
75656;BME280;64252;51.094;13.714;2023-02-01T12:46:22;100035.97;;;5.45;75.98
75656;BME280;64252;51.094;13.714;2023-02-01T12:49:00;100029.53;;;5.45;75.89
75656;BME280;64252;51.094;13.714;2023-02-01T12:51:36;100025.13;;;5.44;75.94
75656;BME280;64252;51.094;13.714;2023-02-01T12:54:13;100017.97;;;5.46;76.59
75656;BME280;64252;51.094;13.714;2023-02-01T12:56:47;100014.53;;;5.53;75.02
75656;BME280;64252;51.094;13.714;2023-02-01T13:01:58;100019.72;;;5.70;73.57
75656;BME280;64252;51.094;13.714;2023-02-01T13:05:20;100003.72;;;5.70;73.49
75656;BME280;64252;51.094;13.714;2023-02-01T13:07:58;100011.31;;;5.70;73.68
75656;BME280;64252;51.094;13.714;2023-02-01T13:10:59;100013.41;;;5.73;72.82
75656;BME280;64252;51.094;13.714;2023-02-01T13:13:46;100015.25;;;5.85;73.23
75656;BME280;64252;51.094;13.714;2023-02-01T13:16:19;100006.97;;;5.88;73.64
75656;BME280;64252;51.094;13.714;2023-02-01T13:18:50;100010.66;;;5.92;72.83
75656;BME280;64252;51.094;13.714;2023-02-01T13:21:24;100011.59;;;6.00;72.94
75656;BME280;64252;51.094;13.714;2023-02-01T13:23:52;99997.97;;;5.98;73.01
75656;BME280;64252;51.094;13.714;2023-02-01T13:26:17;100000.34;;;5.96;73.20
75656;BME280;64252;51.094;13.714;2023-02-01T13:28:49;100004.31;;;5.95;73.87
75656;BME280;64252;51.094;13.714;2023-02-01T13:37:02;100000.84;;;6.02;73.18
75656;BME280;64252;51.094;13.714;2023-02-01T13:42:59;99992.44;;;6.02;71.96
75656;BME280;64252;51.094;13.714;2023-02-01T13:45:30;99988.44;;;6.03;72.41
75656;BME280;64252;51.094;13.714;2023-02-01T13:48:00;99991.25;;;6.03;72.22
75656;BME280;64252;51.094;13.714;2023-02-01T13:50:32;99979.63;;;6.01;71.32
75656;BME280;64252;51.094;13.714;2023-02-01T13:55:40;99977.16;;;5.99;70.83
75656;BME280;64252;51.094;13.714;2023-02-01T13:58:30;99973.94;;;5.97;70.94
75656;BME280;64252;51.094;13.714;2023-02-01T14:03:48;99968.63;;;5.92;70.75
75656;BME280;64252;51.094;13.714;2023-02-01T14:11:43;99973.59;;;5.83;71.42
75656;BME280;64252;51.094;13.714;2023-02-01T14:19:24;99970.06;;;5.86;70.66
75656;BME280;64252;51.094;13.714;2023-02-01T14:26:57;99963.03;;;5.92;69.44
75656;BME280;64252;51.094;13.714;2023-02-01T14:29:40;99965.81;;;5.92;69.71
75656;BME280;64252;51.094;13.714;2023-02-01T14:32:17;99960.94;;;5.89;68.72
75656;BME280;64252;51.094;13.714;2023-02-01T14:47:50;99953.69;;;5.69;70.34
75656;BME280;64252;51.094;13.714;2023-02-01T15:01:22;99962.38;;;5.64;69.44
75656;BME280;64252;51.094;13.714;2023-02-01T15:06:29;99943.78;;;5.56;70.74
75656;BME280;64252;51.094;13.714;2023-02-01T15:08:59;99951.38;;;5.55;69.88
75656;BME280;64252;51.094;13.714;2023-02-01T15:11:26;99948.06;;;5.50;71.09
75656;BME280;64252;51.094;13.714;2023-02-01T15:13:53;99953.66;;;5.50;70.08
75656;BME280;64252;51.094;13.714;2023-02-01T15:16:22;99948.13;;;5.53;69.99
75656;BME280;64252;51.094;13.714;2023-02-01T15:18:48;99928.75;;;5.45;72.25
75656;BME280;64252;51.094;13.714;2023-02-01T15:21:22;99943.75;;;5.37;72.16
75656;BME280;64252;51.094;13.714;2023-02-01T15:23:48;99922.22;;;5.21;73.39
75656;BME280;64252;51.094;13.714;2023-02-01T15:26:27;99915.53;;;5.10;75.26
75656;BME280;64252;51.094;13.714;2023-02-01T15:28:53;99911.94;;;5.10;73.65
75656;BME280;64252;51.094;13.714;2023-02-01T15:31:41;99910.22;;;5.05;74.52
75656;BME280;64252;51.094;13.714;2023-02-01T15:34:09;99898.31;;;5.08;73.05
75656;BME280;64252;51.094;13.714;2023-02-01T15:36:34;99900.47;;;4.99;74.03
75656;BME280;64252;51.094;13.714;2023-02-01T15:39:31;99888.13;;;5.00;73.18
75656;BME280;64252;51.094;13.714;2023-02-01T15:42:08;99887.59;;;4.95;73.93
75656;BME280;64252;51.094;13.714;2023-02-01T15:44:39;99883.53;;;4.92;74.57
75656;BME280;64252;51.094;13.714;2023-02-01T15:47:13;99882.09;;;4.98;73.25